sensor_id;sensor_type;location;lat;lon;timestamp;P1;durP1;ratioP1;P2;durP2;ratioP2
10721;SDS011;5412;59.450;18.124;2022-12-17T00:00:58;6.90;;;4.63;;
10721;SDS011;5412;59.450;18.124;2022-12-17T00:03:43;7.20;;;4.87;;
10721;SDS011;5412;59.450;18.124;2022-12-17T00:06:28;6.57;;;4.33;;
10721;SDS011;5412;59.450;18.124;2022-12-17T00:09:12;6.70;;;4.60;;
10721;SDS011;5412;59.450;18.124;2022-12-17T00:11:56;8.07;;;4.70;;
10721;SDS011;5412;59.450;18.124;2022-12-17T00:14:40;6.80;;;4.77;;
10721;SDS011;5412;59.450;18.124;2022-12-17T00:17:24;6.77;;;4.20;;
10721;SDS011;5412;59.450;18.124;2022-12-17T00:20:08;7.70;;;4.90;;
10721;SDS011;5412;59.450;18.124;2022-12-17T00:23:02;9.90;;;4.80;;
10721;SDS011;5412;59.450;18.124;2022-12-17T00:25:51;7.73;;;4.77;;
10721;SDS011;5412;59.450;18.124;2022-12-17T00:28:36;8.67;;;4.57;;
10721;SDS011;5412;59.450;18.124;2022-12-17T00:31:21;7.03;;;4.60;;
10721;SDS011;5412;59.450;18.124;2022-12-17T00:34:05;9.37;;;5.07;;
10721;SDS011;5412;59.450;18.124;2022-12-17T00:36:49;7.17;;;4.67;;
10721;SDS011;5412;59.450;18.124;2022-12-17T00:39:34;9.40;;;4.90;;
10721;SDS011;5412;59.450;18.124;2022-12-17T00:42:18;8.50;;;4.83;;
10721;SDS011;5412;59.450;18.124;2022-12-17T00:45:02;10.53;;;5.67;;
10721;SDS011;5412;59.450;18.124;2022-12-17T00:47:47;6.70;;;4.67;;
10721;SDS011;5412;59.450;18.124;2022-12-17T00:50:31;7.20;;;4.80;;
10721;SDS011;5412;59.450;18.124;2022-12-17T00:53:16;6.70;;;4.73;;
10721;SDS011;5412;59.450;18.124;2022-12-17T00:56:00;6.33;;;4.60;;
10721;SDS011;5412;59.450;18.124;2022-12-17T00:58:44;8.37;;;5.10;;
10721;SDS011;5412;59.450;18.124;2022-12-17T01:01:28;9.27;;;4.80;;
10721;SDS011;5412;59.450;18.124;2022-12-17T01:04:12;6.03;;;3.87;;
10721;SDS011;5412;59.450;18.124;2022-12-17T01:06:56;7.47;;;4.10;;
10721;SDS011;5412;59.450;18.124;2022-12-17T01:09:40;6.03;;;4.43;;
10721;SDS011;5412;59.450;18.124;2022-12-17T01:12:24;6.03;;;3.87;;
10721;SDS011;5412;59.450;18.124;2022-12-17T01:15:08;5.77;;;3.53;;
10721;SDS011;5412;59.450;18.124;2022-12-17T01:17:53;5.90;;;3.80;;
10721;SDS011;5412;59.450;18.124;2022-12-17T01:20:37;7.63;;;3.60;;
10721;SDS011;5412;59.450;18.124;2022-12-17T01:23:21;6.33;;;4.00;;
10721;SDS011;5412;59.450;18.124;2022-12-17T01:26:05;5.23;;;3.70;;
10721;SDS011;5412;59.450;18.124;2022-12-17T01:28:49;6.10;;;3.60;;
10721;SDS011;5412;59.450;18.124;2022-12-17T01:31:33;6.60;;;3.80;;
10721;SDS011;5412;59.450;18.124;2022-12-17T01:34:17;6.40;;;3.53;;
10721;SDS011;5412;59.450;18.124;2022-12-17T01:37:01;5.53;;;3.80;;
10721;SDS011;5412;59.450;18.124;2022-12-17T01:39:45;4.40;;;3.37;;
10721;SDS011;5412;59.450;18.124;2022-12-17T01:42:36;5.33;;;3.90;;
10721;SDS011;5412;59.450;18.124;2022-12-17T01:45:25;4.13;;;3.17;;
10721;SDS011;5412;59.450;18.124;2022-12-17T01:48:16;5.13;;;3.80;;
10721;SDS011;5412;59.450;18.124;2022-12-17T01:51:01;3.77;;;2.87;;
10721;SDS011;5412;59.450;18.124;2022-12-17T01:53:46;4.97;;;3.67;;
10721;SDS011;5412;59.450;18.124;2022-12-17T01:56:34;3.93;;;3.20;;
10721;SDS011;5412;59.450;18.124;2022-12-17T01:59:22;5.03;;;3.37;;
10721;SDS011;5412;59.450;18.124;2022-12-17T02:02:12;5.03;;;3.03;;
10721;SDS011;5412;59.450;18.124;2022-12-17T02:04:57;4.13;;;3.23;;
10721;SDS011;5412;59.450;18.124;2022-12-17T02:08:24;5.13;;;3.80;;
10721;SDS011;5412;59.450;18.124;2022-12-17T02:13:38;4.17;;;2.97;;
10721;SDS011;5412;59.450;18.124;2022-12-17T02:16:30;5.90;;;3.90;;
10721;SDS011;5412;59.450;18.124;2022-12-17T02:19:28;4.87;;;3.70;;
10721;SDS011;5412;59.450;18.124;2022-12-17T02:28:34;5.60;;;3.30;;
10721;SDS011;5412;59.450;18.124;2022-12-17T02:31:21;5.40;;;3.70;;
10721;SDS011;5412;59.450;18.124;2022-12-17T02:34:08;5.10;;;3.63;;
10721;SDS011;5412;59.450;18.124;2022-12-17T02:36:52;5.67;;;3.73;;
10721;SDS011;5412;59.450;18.124;2022-12-17T02:39:36;6.47;;;4.27;;
10721;SDS011;5412;59.450;18.124;2022-12-17T02:42:21;7.03;;;3.87;;
10721;SDS011;5412;59.450;18.124;2022-12-17T02:45:07;5.90;;;3.90;;
10721;SDS011;5412;59.450;18.124;2022-12-17T02:47:52;9.53;;;4.67;;
10721;SDS011;5412;59.450;18.124;2022-12-17T02:50:37;6.40;;;4.03;;
10721;SDS011;5412;59.450;18.124;2022-12-17T02:53:22;8.63;;;4.83;;
10721;SDS011;5412;59.450;18.124;2022-12-17T02:56:06;48.67;;;7.40;;
10721;SDS011;5412;59.450;18.124;2022-12-17T02:58:50;8.27;;;4.60;;
10721;SDS011;5412;59.450;18.124;2022-12-17T03:01:34;11.03;;;4.30;;
10721;SDS011;5412;59.450;18.124;2022-12-17T03:04:19;7.80;;;4.53;;
10721;SDS011;5412;59.450;18.124;2022-12-17T03:07:03;21.90;;;4.47;;
10721;SDS011;5412;59.450;18.124;2022-12-17T03:09:47;27.73;;;4.70;;
10721;SDS011;5412;59.450;18.124;2022-12-17T03:12:31;8.20;;;3.90;;
10721;SDS011;5412;59.450;18.124;2022-12-17T03:15:15;7.73;;;3.90;;
10721;SDS011;5412;59.450;18.124;2022-12-17T03:17:59;14.63;;;4.83;;
10721;SDS011;5412;59.450;18.124;2022-12-17T03:20:43;13.73;;;5.27;;
10721;SDS011;5412;59.450;18.124;2022-12-17T03:23:28;22.70;;;4.03;;
10721;SDS011;5412;59.450;18.124;2022-12-17T03:26:12;16.40;;;4.17;;
10721;SDS011;5412;59.450;18.124;2022-12-17T03:28:56;16.60;;;3.73;;
10721;SDS011;5412;59.450;18.124;2022-12-17T03:31:40;9.67;;;4.07;;
10721;SDS011;5412;59.450;18.124;2022-12-17T03:34:24;10.30;;;4.40;;
10721;SDS011;5412;59.450;18.124;2022-12-17T03:37:08;22.10;;;4.73;;
10721;SDS011;5412;59.450;18.124;2022-12-17T03:39:52;53.47;;;6.23;;
10721;SDS011;5412;59.450;18.124;2022-12-17T03:42:36;18.87;;;4.43;;
10721;SDS011;5412;59.450;18.124;2022-12-17T03:45:21;12.23;;;4.07;;
10721;SDS011;5412;59.450;18.124;2022-12-17T03:48:09;16.77;;;5.90;;
10721;SDS011;5412;59.450;18.124;2022-12-17T03:50:55;18.70;;;4.33;;
10721;SDS011;5412;59.450;18.124;2022-12-17T03:53:40;13.00;;;4.50;;
10721;SDS011;5412;59.450;18.124;2022-12-17T03:56:25;8.73;;;4.53;;
10721;SDS011;5412;59.450;18.124;2022-12-17T03:59:10;14.07;;;4.03;;
10721;SDS011;5412;59.450;18.124;2022-12-17T04:01:54;7.43;;;4.07;;
10721;SDS011;5412;59.450;18.124;2022-12-17T04:04:38;8.77;;;4.17;;
10721;SDS011;5412;59.450;18.124;2022-12-17T04:07:23;6.40;;;4.43;;
10721;SDS011;5412;59.450;18.124;2022-12-17T04:10:07;7.20;;;4.23;;
10721;SDS011;5412;59.450;18.124;2022-12-17T04:12:52;7.70;;;4.07;;
10721;SDS011;5412;59.450;18.124;2022-12-17T04:15:36;8.77;;;4.27;;
10721;SDS011;5412;59.450;18.124;2022-12-17T04:18:20;17.97;;;6.27;;
10721;SDS011;5412;59.450;18.124;2022-12-17T04:21:04;19.50;;;3.90;;
10721;SDS011;5412;59.450;18.124;2022-12-17T04:23:55;15.83;;;4.63;;
10721;SDS011;5412;59.450;18.124;2022-12-17T04:26:40;13.83;;;5.30;;
10721;SDS011;5412;59.450;18.124;2022-12-17T04:29:24;7.47;;;4.50;;
10721;SDS011;5412;59.450;18.124;2022-12-17T04:32:08;9.90;;;4.37;;
10721;SDS011;5412;59.450;18.124;2022-12-17T04:34:52;12.83;;;4.27;;
10721;SDS011;5412;59.450;18.124;2022-12-17T04:37:36;7.30;;;4.40;;
10721;SDS011;5412;59.450;18.124;2022-12-17T04:40:21;8.20;;;4.33;;
10721;SDS011;5412;59.450;18.124;2022-12-17T04:43:08;6.77;;;4.40;;
10721;SDS011;5412;59.450;18.124;2022-12-17T04:45:54;12.07;;;4.57;;
10721;SDS011;5412;59.450;18.124;2022-12-17T04:48:38;9.80;;;4.60;;
10721;SDS011;5412;59.450;18.124;2022-12-17T04:51:36;9.20;;;5.20;;
10721;SDS011;5412;59.450;18.124;2022-12-17T04:54:20;13.73;;;5.10;;
10721;SDS011;5412;59.450;18.124;2022-12-17T04:57:04;6.70;;;4.60;;
10721;SDS011;5412;59.450;18.124;2022-12-17T04:59:48;6.67;;;4.73;;
10721;SDS011;5412;59.450;18.124;2022-12-17T05:02:32;8.63;;;5.47;;
10721;SDS011;5412;59.450;18.124;2022-12-17T05:05:16;7.87;;;4.97;;
10721;SDS011;5412;59.450;18.124;2022-12-17T05:08:09;8.17;;;4.10;;
10721;SDS011;5412;59.450;18.124;2022-12-17T05:10:53;7.63;;;4.47;;
10721;SDS011;5412;59.450;18.124;2022-12-17T05:13:37;10.27;;;4.73;;
10721;SDS011;5412;59.450;18.124;2022-12-17T05:16:21;9.20;;;4.87;;
10721;SDS011;5412;59.450;18.124;2022-12-17T05:19:05;6.67;;;4.33;;
10721;SDS011;5412;59.450;18.124;2022-12-17T05:21:49;6.10;;;4.43;;
10721;SDS011;5412;59.450;18.124;2022-12-17T05:24:33;5.73;;;4.20;;
10721;SDS011;5412;59.450;18.124;2022-12-17T05:27:19;7.40;;;4.43;;
10721;SDS011;5412;59.450;18.124;2022-12-17T05:30:04;6.60;;;3.80;;
10721;SDS011;5412;59.450;18.124;2022-12-17T05:32:56;5.80;;;3.77;;
10721;SDS011;5412;59.450;18.124;2022-12-17T05:35:41;6.13;;;4.20;;
10721;SDS011;5412;59.450;18.124;2022-12-17T05:38:25;7.47;;;4.67;;
10721;SDS011;5412;59.450;18.124;2022-12-17T05:41:10;6.65;;;5.05;;
10721;SDS011;5412;59.450;18.124;2022-12-17T05:43:54;5.80;;;4.43;;
10721;SDS011;5412;59.450;18.124;2022-12-17T05:46:38;5.50;;;3.63;;
10721;SDS011;5412;59.450;18.124;2022-12-17T05:49:22;7.30;;;4.03;;
10721;SDS011;5412;59.450;18.124;2022-12-17T05:52:06;5.37;;;3.33;;
10721;SDS011;5412;59.450;18.124;2022-12-17T05:54:50;7.70;;;4.13;;
10721;SDS011;5412;59.450;18.124;2022-12-17T05:57:35;4.90;;;3.20;;
10721;SDS011;5412;59.450;18.124;2022-12-17T06:00:19;6.07;;;4.00;;
10721;SDS011;5412;59.450;18.124;2022-12-17T06:03:03;5.07;;;3.73;;
10721;SDS011;5412;59.450;18.124;2022-12-17T06:05:47;5.00;;;3.37;;
10721;SDS011;5412;59.450;18.124;2022-12-17T06:08:37;4.90;;;3.90;;
10721;SDS011;5412;59.450;18.124;2022-12-17T06:11:21;5.97;;;3.63;;
10721;SDS011;5412;59.450;18.124;2022-12-17T06:14:05;6.60;;;3.83;;
10721;SDS011;5412;59.450;18.124;2022-12-17T06:16:49;5.30;;;3.20;;
10721;SDS011;5412;59.450;18.124;2022-12-17T06:19:33;4.37;;;3.17;;
10721;SDS011;5412;59.450;18.124;2022-12-17T06:22:17;7.70;;;4.27;;
10721;SDS011;5412;59.450;18.124;2022-12-17T06:25:02;4.07;;;3.23;;
10721;SDS011;5412;59.450;18.124;2022-12-17T06:27:47;5.53;;;3.70;;
10721;SDS011;5412;59.450;18.124;2022-12-17T06:30:31;5.00;;;3.23;;
10721;SDS011;5412;59.450;18.124;2022-12-17T06:33:15;4.60;;;3.33;;
10721;SDS011;5412;59.450;18.124;2022-12-17T06:35:59;4.30;;;2.87;;
10721;SDS011;5412;59.450;18.124;2022-12-17T06:38:43;5.60;;;2.90;;
10721;SDS011;5412;59.450;18.124;2022-12-17T06:41:28;5.23;;;3.13;;
10721;SDS011;5412;59.450;18.124;2022-12-17T06:44:12;4.20;;;2.83;;
10721;SDS011;5412;59.450;18.124;2022-12-17T06:46:56;4.20;;;2.80;;
10721;SDS011;5412;59.450;18.124;2022-12-17T06:49:41;4.63;;;2.77;;
10721;SDS011;5412;59.450;18.124;2022-12-17T06:52:25;5.33;;;2.90;;
10721;SDS011;5412;59.450;18.124;2022-12-17T06:55:09;5.87;;;3.10;;
10721;SDS011;5412;59.450;18.124;2022-12-17T06:58:10;5.20;;;2.93;;
10721;SDS011;5412;59.450;18.124;2022-12-17T07:00:54;4.37;;;2.33;;
10721;SDS011;5412;59.450;18.124;2022-12-17T07:03:39;9.67;;;2.83;;
10721;SDS011;5412;59.450;18.124;2022-12-17T07:06:22;2.80;;;2.47;;
10721;SDS011;5412;59.450;18.124;2022-12-17T07:09:07;2.60;;;2.40;;
10721;SDS011;5412;59.450;18.124;2022-12-17T07:11:51;2.70;;;2.30;;
10721;SDS011;5412;59.450;18.124;2022-12-17T07:14:35;2.90;;;2.23;;
10721;SDS011;5412;59.450;18.124;2022-12-17T07:17:19;5.30;;;2.90;;
10721;SDS011;5412;59.450;18.124;2022-12-17T07:20:04;2.47;;;2.20;;
10721;SDS011;5412;59.450;18.124;2022-12-17T07:22:52;2.93;;;2.13;;
10721;SDS011;5412;59.450;18.124;2022-12-17T07:25:38;4.27;;;2.67;;
10721;SDS011;5412;59.450;18.124;2022-12-17T07:28:23;4.37;;;2.57;;
10721;SDS011;5412;59.450;18.124;2022-12-17T07:31:07;5.10;;;2.77;;
10721;SDS011;5412;59.450;18.124;2022-12-17T07:33:51;2.83;;;2.53;;
10721;SDS011;5412;59.450;18.124;2022-12-17T07:36:36;3.27;;;2.90;;
10721;SDS011;5412;59.450;18.124;2022-12-17T07:39:20;4.03;;;2.80;;
10721;SDS011;5412;59.450;18.124;2022-12-17T07:42:11;3.50;;;2.47;;
10721;SDS011;5412;59.450;18.124;2022-12-17T07:44:56;4.33;;;2.93;;
10721;SDS011;5412;59.450;18.124;2022-12-17T07:47:40;3.73;;;2.50;;
10721;SDS011;5412;59.450;18.124;2022-12-17T07:50:24;3.70;;;2.83;;
10721;SDS011;5412;59.450;18.124;2022-12-17T07:53:08;2.97;;;2.50;;
10721;SDS011;5412;59.450;18.124;2022-12-17T07:55:52;4.63;;;2.53;;
10721;SDS011;5412;59.450;18.124;2022-12-17T07:58:36;2.20;;;2.03;;
10721;SDS011;5412;59.450;18.124;2022-12-17T08:01:20;2.30;;;2.10;;
10721;SDS011;5412;59.450;18.124;2022-12-17T08:04:04;3.07;;;2.50;;
10721;SDS011;5412;59.450;18.124;2022-12-17T08:06:49;2.93;;;2.30;;
10721;SDS011;5412;59.450;18.124;2022-12-17T08:09:34;2.70;;;2.50;;
10721;SDS011;5412;59.450;18.124;2022-12-17T08:12:18;3.60;;;2.77;;
10721;SDS011;5412;59.450;18.124;2022-12-17T08:15:03;2.90;;;2.60;;
10721;SDS011;5412;59.450;18.124;2022-12-17T08:17:47;4.70;;;2.83;;
10721;SDS011;5412;59.450;18.124;2022-12-17T08:20:32;6.40;;;2.77;;
10721;SDS011;5412;59.450;18.124;2022-12-17T08:23:16;3.00;;;2.50;;
10721;SDS011;5412;59.450;18.124;2022-12-17T08:26:00;5.00;;;2.70;;
10721;SDS011;5412;59.450;18.124;2022-12-17T08:28:44;2.87;;;2.27;;
10721;SDS011;5412;59.450;18.124;2022-12-17T08:31:28;2.40;;;2.20;;
10721;SDS011;5412;59.450;18.124;2022-12-17T08:34:13;3.50;;;3.10;;
10721;SDS011;5412;59.450;18.124;2022-12-17T08:36:57;2.80;;;2.50;;
10721;SDS011;5412;59.450;18.124;2022-12-17T08:39:41;3.67;;;2.50;;
10721;SDS011;5412;59.450;18.124;2022-12-17T08:42:25;3.67;;;2.50;;
10721;SDS011;5412;59.450;18.124;2022-12-17T08:45:09;4.40;;;2.47;;
10721;SDS011;5412;59.450;18.124;2022-12-17T08:48:00;3.63;;;2.43;;
10721;SDS011;5412;59.450;18.124;2022-12-17T08:50:48;5.20;;;2.50;;
10721;SDS011;5412;59.450;18.124;2022-12-17T08:53:32;3.90;;;2.83;;
10721;SDS011;5412;59.450;18.124;2022-12-17T08:56:17;5.83;;;2.37;;
10721;SDS011;5412;59.450;18.124;2022-12-17T08:59:02;2.43;;;1.80;;
10721;SDS011;5412;59.450;18.124;2022-12-17T09:01:46;2.50;;;2.30;;
10721;SDS011;5412;59.450;18.124;2022-12-17T09:04:30;2.20;;;1.90;;
10721;SDS011;5412;59.450;18.124;2022-12-17T09:07:14;2.37;;;2.07;;
10721;SDS011;5412;59.450;18.124;2022-12-17T09:09:59;2.30;;;2.10;;
10721;SDS011;5412;59.450;18.124;2022-12-17T09:12:43;4.37;;;2.23;;
10721;SDS011;5412;59.450;18.124;2022-12-17T09:15:26;2.20;;;1.73;;
10721;SDS011;5412;59.450;18.124;2022-12-17T09:18:27;3.17;;;1.93;;
10721;SDS011;5412;59.450;18.124;2022-12-17T09:21:12;3.80;;;2.10;;
10721;SDS011;5412;59.450;18.124;2022-12-17T09:23:56;2.53;;;1.90;;
10721;SDS011;5412;59.450;18.124;2022-12-17T09:26:40;2.00;;;1.80;;
10721;SDS011;5412;59.450;18.124;2022-12-17T09:29:24;3.20;;;2.00;;
10721;SDS011;5412;59.450;18.124;2022-12-17T09:32:08;3.80;;;1.80;;
10721;SDS011;5412;59.450;18.124;2022-12-17T09:34:52;1.70;;;1.50;;
10721;SDS011;5412;59.450;18.124;2022-12-17T09:37:36;2.50;;;1.53;;
10721;SDS011;5412;59.450;18.124;2022-12-17T09:40:31;2.07;;;1.77;;
10721;SDS011;5412;59.450;18.124;2022-12-17T09:46:26;2.10;;;1.30;;
10721;SDS011;5412;59.450;18.124;2022-12-17T09:49:22;2.20;;;1.70;;
10721;SDS011;5412;59.450;18.124;2022-12-17T09:52:15;2.87;;;1.60;;
10721;SDS011;5412;59.450;18.124;2022-12-17T09:55:00;4.03;;;1.67;;
10721;SDS011;5412;59.450;18.124;2022-12-17T09:57:56;2.47;;;1.60;;
10721;SDS011;5412;59.450;18.124;2022-12-17T10:00:41;2.30;;;1.53;;
10721;SDS011;5412;59.450;18.124;2022-12-17T10:03:25;3.40;;;2.10;;
10721;SDS011;5412;59.450;18.124;2022-12-17T10:06:11;2.40;;;1.57;;
10721;SDS011;5412;59.450;18.124;2022-12-17T10:09:01;5.17;;;1.70;;
10721;SDS011;5412;59.450;18.124;2022-12-17T10:11:52;5.00;;;1.37;;
10721;SDS011;5412;59.450;18.124;2022-12-17T10:14:36;2.20;;;1.70;;
10721;SDS011;5412;59.450;18.124;2022-12-17T10:17:21;3.73;;;1.50;;
10721;SDS011;5412;59.450;18.124;2022-12-17T10:20:51;2.73;;;1.40;;
10721;SDS011;5412;59.450;18.124;2022-12-17T10:23:23;2.13;;;1.40;;
10721;SDS011;5412;59.450;18.124;2022-12-17T10:26:18;1.67;;;1.57;;
10721;SDS011;5412;59.450;18.124;2022-12-17T10:29:15;2.50;;;1.20;;
10721;SDS011;5412;59.450;18.124;2022-12-17T10:32:08;2.33;;;1.40;;
10721;SDS011;5412;59.450;18.124;2022-12-17T10:34:59;4.00;;;1.30;;
10721;SDS011;5412;59.450;18.124;2022-12-17T10:37:49;2.90;;;1.50;;
10721;SDS011;5412;59.450;18.124;2022-12-17T10:40:34;4.33;;;1.87;;
10721;SDS011;5412;59.450;18.124;2022-12-17T10:43:29;3.87;;;1.70;;
10721;SDS011;5412;59.450;18.124;2022-12-17T10:49:23;4.40;;;1.70;;
10721;SDS011;5412;59.450;18.124;2022-12-17T10:55:25;4.30;;;1.50;;
10721;SDS011;5412;59.450;18.124;2022-12-17T10:58:20;3.83;;;1.70;;
10721;SDS011;5412;59.450;18.124;2022-12-17T11:01:26;3.57;;;1.40;;
10721;SDS011;5412;59.450;18.124;2022-12-17T11:04:49;4.10;;;1.63;;
10721;SDS011;5412;59.450;18.124;2022-12-17T11:10:50;2.57;;;1.63;;
10721;SDS011;5412;59.450;18.124;2022-12-17T11:13:30;3.83;;;1.93;;
10721;SDS011;5412;59.450;18.124;2022-12-17T11:16:22;3.67;;;1.43;;
10721;SDS011;5412;59.450;18.124;2022-12-17T11:22:59;2.93;;;1.10;;
10721;SDS011;5412;59.450;18.124;2022-12-17T11:25:43;2.87;;;1.33;;
10721;SDS011;5412;59.450;18.124;2022-12-17T11:28:37;1.30;;;1.20;;
10721;SDS011;5412;59.450;18.124;2022-12-17T11:34:45;1.50;;;1.40;;
10721;SDS011;5412;59.450;18.124;2022-12-17T11:37:42;1.20;;;1.10;;
10721;SDS011;5412;59.450;18.124;2022-12-17T11:40:40;2.67;;;1.20;;
10721;SDS011;5412;59.450;18.124;2022-12-17T11:50:01;6.20;;;0.97;;
10721;SDS011;5412;59.450;18.124;2022-12-17T11:58:39;2.13;;;1.03;;
10721;SDS011;5412;59.450;18.124;2022-12-17T12:04:22;1.37;;;1.20;;
10721;SDS011;5412;59.450;18.124;2022-12-17T12:07:13;2.23;;;1.03;;
10721;SDS011;5412;59.450;18.124;2022-12-17T12:13:23;2.67;;;1.23;;
10721;SDS011;5412;59.450;18.124;2022-12-17T12:19:30;2.03;;;1.10;;
10721;SDS011;5412;59.450;18.124;2022-12-17T12:28:28;1.47;;;1.03;;
10721;SDS011;5412;59.450;18.124;2022-12-17T12:31:38;1.80;;;1.20;;
10721;SDS011;5412;59.450;18.124;2022-12-17T12:34:38;2.93;;;1.13;;
10721;SDS011;5412;59.450;18.124;2022-12-17T12:37:24;1.60;;;1.20;;
10721;SDS011;5412;59.450;18.124;2022-12-17T12:40:13;2.47;;;1.20;;
10721;SDS011;5412;59.450;18.124;2022-12-17T12:43:21;2.27;;;1.27;;
10721;SDS011;5412;59.450;18.124;2022-12-17T12:46:15;2.60;;;1.10;;
10721;SDS011;5412;59.450;18.124;2022-12-17T12:51:57;1.97;;;0.80;;
10721;SDS011;5412;59.450;18.124;2022-12-17T12:57:33;2.57;;;1.10;;
10721;SDS011;5412;59.450;18.124;2022-12-17T13:00:38;1.60;;;1.00;;
10721;SDS011;5412;59.450;18.124;2022-12-17T13:11:43;2.80;;;0.90;;
10721;SDS011;5412;59.450;18.124;2022-12-17T13:24:40;6.70;;;1.10;;
10721;SDS011;5412;59.450;18.124;2022-12-17T13:27:30;5.23;;;0.80;;
10721;SDS011;5412;59.450;18.124;2022-12-17T13:38:23;1.80;;;1.00;;
10721;SDS011;5412;59.450;18.124;2022-12-17T13:43:32;6.57;;;1.60;;
10721;SDS011;5412;59.450;18.124;2022-12-17T13:46:03;2.13;;;1.10;;
10721;SDS011;5412;59.450;18.124;2022-12-17T13:48:29;1.60;;;0.97;;
10721;SDS011;5412;59.450;18.124;2022-12-17T13:50:56;1.10;;;0.80;;
10721;SDS011;5412;59.450;18.124;2022-12-17T13:53:28;2.10;;;1.20;;
10721;SDS011;5412;59.450;18.124;2022-12-17T13:55:58;3.93;;;1.03;;
10721;SDS011;5412;59.450;18.124;2022-12-17T14:01:02;1.80;;;1.10;;
10721;SDS011;5412;59.450;18.124;2022-12-17T14:03:29;2.07;;;1.43;;
10721;SDS011;5412;59.450;18.124;2022-12-17T14:05:55;2.13;;;1.10;;
10721;SDS011;5412;59.450;18.124;2022-12-17T14:08:21;4.17;;;1.70;;
10721;SDS011;5412;59.450;18.124;2022-12-17T14:10:53;1.87;;;1.43;;
10721;SDS011;5412;59.450;18.124;2022-12-17T14:13:42;6.82;;;3.90;;
10721;SDS011;5412;59.450;18.124;2022-12-17T14:16:16;9.63;;;2.77;;
10721;SDS011;5412;59.450;18.124;2022-12-17T14:18:45;6.83;;;1.60;;
10721;SDS011;5412;59.450;18.124;2022-12-17T14:21:14;1.93;;;1.30;;
10721;SDS011;5412;59.450;18.124;2022-12-17T14:23:40;3.17;;;1.43;;
10721;SDS011;5412;59.450;18.124;2022-12-17T14:26:09;2.30;;;1.30;;
10721;SDS011;5412;59.450;18.124;2022-12-17T14:28:47;1.77;;;1.50;;
10721;SDS011;5412;59.450;18.124;2022-12-17T14:31:22;2.13;;;1.07;;
10721;SDS011;5412;59.450;18.124;2022-12-17T14:34:00;2.73;;;1.50;;
10721;SDS011;5412;59.450;18.124;2022-12-17T14:36:31;1.67;;;1.07;;
10721;SDS011;5412;59.450;18.124;2022-12-17T14:39:03;4.17;;;1.30;;
10721;SDS011;5412;59.450;18.124;2022-12-17T14:41:43;2.80;;;1.10;;
10721;SDS011;5412;59.450;18.124;2022-12-17T14:44:28;2.17;;;1.10;;
10721;SDS011;5412;59.450;18.124;2022-12-17T14:52:47;2.60;;;1.47;;
10721;SDS011;5412;59.450;18.124;2022-12-17T15:00:43;1.37;;;1.27;;
10721;SDS011;5412;59.450;18.124;2022-12-17T15:03:29;1.83;;;1.57;;
10721;SDS011;5412;59.450;18.124;2022-12-17T15:05:59;3.47;;;1.47;;
10721;SDS011;5412;59.450;18.124;2022-12-17T15:08:28;3.47;;;1.50;;
10721;SDS011;5412;59.450;18.124;2022-12-17T15:10:57;2.23;;;1.30;;
10721;SDS011;5412;59.450;18.124;2022-12-17T15:13:23;1.90;;;1.50;;
10721;SDS011;5412;59.450;18.124;2022-12-17T15:15:48;2.97;;;1.73;;
10721;SDS011;5412;59.450;18.124;2022-12-17T15:18:14;2.67;;;1.60;;
10721;SDS011;5412;59.450;18.124;2022-12-17T15:20:40;1.93;;;1.30;;
10721;SDS011;5412;59.450;18.124;2022-12-17T15:23:13;3.97;;;1.50;;
10721;SDS011;5412;59.450;18.124;2022-12-17T15:25:41;1.80;;;1.30;;
10721;SDS011;5412;59.450;18.124;2022-12-17T15:28:08;2.37;;;1.43;;
10721;SDS011;5412;59.450;18.124;2022-12-17T15:30:34;2.77;;;1.60;;
10721;SDS011;5412;59.450;18.124;2022-12-17T15:33:00;2.77;;;1.50;;
10721;SDS011;5412;59.450;18.124;2022-12-17T15:35:27;2.40;;;1.53;;
10721;SDS011;5412;59.450;18.124;2022-12-17T15:37:53;2.40;;;1.30;;
10721;SDS011;5412;59.450;18.124;2022-12-17T15:40:19;3.17;;;1.40;;
10721;SDS011;5412;59.450;18.124;2022-12-17T15:42:45;3.33;;;1.60;;
10721;SDS011;5412;59.450;18.124;2022-12-17T15:45:29;2.60;;;1.53;;
10721;SDS011;5412;59.450;18.124;2022-12-17T15:47:56;5.30;;;1.57;;
10721;SDS011;5412;59.450;18.124;2022-12-17T15:50:21;2.73;;;1.33;;
10721;SDS011;5412;59.450;18.124;2022-12-17T15:52:53;3.43;;;1.87;;
10721;SDS011;5412;59.450;18.124;2022-12-17T15:55:19;1.40;;;1.30;;
10721;SDS011;5412;59.450;18.124;2022-12-17T15:57:45;2.97;;;1.67;;
10721;SDS011;5412;59.450;18.124;2022-12-17T16:00:11;4.57;;;1.60;;
10721;SDS011;5412;59.450;18.124;2022-12-17T16:02:37;6.33;;;2.00;;
10721;SDS011;5412;59.450;18.124;2022-12-17T16:05:03;4.77;;;1.97;;
10721;SDS011;5412;59.450;18.124;2022-12-17T16:07:29;1.67;;;1.57;;
10721;SDS011;5412;59.450;18.124;2022-12-17T16:09:55;2.27;;;1.40;;
10721;SDS011;5412;59.450;18.124;2022-12-17T16:12:21;3.77;;;1.80;;
10721;SDS011;5412;59.450;18.124;2022-12-17T16:14:46;4.30;;;1.87;;
10721;SDS011;5412;59.450;18.124;2022-12-17T16:17:15;4.27;;;2.00;;
10721;SDS011;5412;59.450;18.124;2022-12-17T16:19:41;2.37;;;1.80;;
10721;SDS011;5412;59.450;18.124;2022-12-17T16:22:06;2.63;;;2.20;;
10721;SDS011;5412;59.450;18.124;2022-12-17T16:24:32;2.57;;;2.20;;
10721;SDS011;5412;59.450;18.124;2022-12-17T16:26:58;3.57;;;1.73;;
10721;SDS011;5412;59.450;18.124;2022-12-17T16:29:24;3.50;;;2.20;;
10721;SDS011;5412;59.450;18.124;2022-12-17T16:31:50;4.67;;;2.13;;
10721;SDS011;5412;59.450;18.124;2022-12-17T16:34:16;4.90;;;2.13;;
10721;SDS011;5412;59.450;18.124;2022-12-17T16:36:42;3.83;;;2.67;;
10721;SDS011;5412;59.450;18.124;2022-12-17T16:39:11;5.20;;;2.40;;
10721;SDS011;5412;59.450;18.124;2022-12-17T16:41:40;5.93;;;2.87;;
10721;SDS011;5412;59.450;18.124;2022-12-17T16:44:06;3.47;;;1.93;;
10721;SDS011;5412;59.450;18.124;2022-12-17T16:46:36;2.77;;;1.87;;
10721;SDS011;5412;59.450;18.124;2022-12-17T16:49:24;6.13;;;2.13;;
10721;SDS011;5412;59.450;18.124;2022-12-17T16:51:49;2.40;;;1.60;;
10721;SDS011;5412;59.450;18.124;2022-12-17T16:54:17;2.20;;;1.77;;
10721;SDS011;5412;59.450;18.124;2022-12-17T16:56:46;4.33;;;2.40;;
10721;SDS011;5412;59.450;18.124;2022-12-17T16:59:12;2.23;;;1.90;;
10721;SDS011;5412;59.450;18.124;2022-12-17T17:01:40;3.30;;;1.90;;
10721;SDS011;5412;59.450;18.124;2022-12-17T17:04:09;4.10;;;2.20;;
10721;SDS011;5412;59.450;18.124;2022-12-17T17:06:46;3.40;;;2.10;;
10721;SDS011;5412;59.450;18.124;2022-12-17T17:09:13;3.07;;;2.20;;
10721;SDS011;5412;59.450;18.124;2022-12-17T17:11:40;3.13;;;2.13;;
10721;SDS011;5412;59.450;18.124;2022-12-17T17:14:06;2.17;;;1.80;;
10721;SDS011;5412;59.450;18.124;2022-12-17T17:16:33;3.00;;;1.93;;
10721;SDS011;5412;59.450;18.124;2022-12-17T17:18:59;3.80;;;2.27;;
10721;SDS011;5412;59.450;18.124;2022-12-17T17:21:30;3.90;;;2.40;;
10721;SDS011;5412;59.450;18.124;2022-12-17T17:24:12;3.73;;;2.30;;
10721;SDS011;5412;59.450;18.124;2022-12-17T17:26:40;3.13;;;2.33;;
10721;SDS011;5412;59.450;18.124;2022-12-17T17:29:07;3.57;;;2.37;;
10721;SDS011;5412;59.450;18.124;2022-12-17T17:31:34;4.37;;;2.73;;
10721;SDS011;5412;59.450;18.124;2022-12-17T17:34:00;4.20;;;2.77;;
10721;SDS011;5412;59.450;18.124;2022-12-17T17:36:26;5.13;;;3.00;;
10721;SDS011;5412;59.450;18.124;2022-12-17T17:38:56;3.27;;;2.50;;
10721;SDS011;5412;59.450;18.124;2022-12-17T17:41:23;4.33;;;2.60;;
10721;SDS011;5412;59.450;18.124;2022-12-17T17:46:20;3.47;;;2.23;;
10721;SDS011;5412;59.450;18.124;2022-12-17T17:48:47;6.43;;;2.70;;
10721;SDS011;5412;59.450;18.124;2022-12-17T17:51:14;5.53;;;2.33;;
10721;SDS011;5412;59.450;18.124;2022-12-17T17:53:42;6.37;;;2.53;;
10721;SDS011;5412;59.450;18.124;2022-12-17T17:56:10;4.53;;;2.90;;
10721;SDS011;5412;59.450;18.124;2022-12-17T17:58:40;8.40;;;2.90;;
10721;SDS011;5412;59.450;18.124;2022-12-17T18:01:11;6.53;;;2.83;;